Time;durP1;ratioP1;P1;durP2;ratioP2;P2;SDS_P1;SDS_P2;PMS_P1;PMS_P2;Temp;Humidity;BMP_temperature;BMP_pressure;BME280_temperature;BME280_humidity;BME280_pressure;Samples;Min_cycle;Max_cycle;Signal;HPM_P1;HPM_P2
2023/07/12 02:10:27;;;;;;;12.80;7.40;;;;;;;;;;80800;1295;3012212;-63
2023/07/12 02:12:57;;;;;;;16.90;9.70;;;;;;;;;;78129;1304;3017109;-63
2023/07/12 02:15:24;;;;;;;20.30;9.80;;;;;;;;;;79355;1304;3016549;-65
2023/07/12 02:17:50;;;;;;;11.00;7.00;;;;;;;;;;79620;1296;3011523;-62
2023/07/12 02:20:18;;;;;;;18.70;8.60;;;;;;;;;;79385;1299;3013051;-63
2023/07/12 02:22:45;;;;;;;20.80;11.20;;;;;;;;;;77930;1299;5756014;-64
2023/07/12 02:25:18;;;;;;;35.00;17.60;;;;;;;;;;78948;1295;3017595;-64
2023/07/12 02:27:45;;;;;;;28.80;15.40;;;;;;;;;;80154;1298;3016542;-63
2023/07/12 02:30:13;;;;;;;23.70;11.60;;;;;;;;;;80132;1295;3016778;-65
2023/07/12 02:32:41;;;;;;;21.70;10.20;;;;;;;;;;78952;1295;3018224;-63
2023/07/12 02:35:07;;;;;;;17.70;8.30;;;;;;;;;;80141;1295;3019020;-64
2023/07/12 02:37:34;;;;;;;18.10;8.60;;;;;;;;;;80122;1295;3013211;-61
2023/07/12 02:40:05;;;;;;;14.30;7.80;;;;;;;;;;79041;1289;3011729;-63
2023/07/12 02:42:32;;;;;;;17.20;8.80;;;;;;;;;;80422;1290;3012703;-62
2023/07/12 02:45:00;;;;;;;12.80;6.40;;;;;;;;;;79037;1289;3018105;-64
2023/07/12 02:47:27;;;;;;;10.90;6.60;;;;;;;;;;80240;1290;3011805;-63
2023/07/12 02:49:54;;;;;;;12.00;6.00;;;;;;;;;;80326;1292;3013399;-63
2023/07/12 02:52:21;;;;;;;14.50;5.70;;;;;;;;;;79046;1289;3018921;-62
2023/07/12 02:54:48;;;;;;;18.10;5.80;;;;;;;;;;80315;1290;3018830;-62
2023/07/12 02:57:14;;;;;;;13.40;6.10;;;;;;;;;;80318;1292;3013078;-63
2023/07/12 02:59:42;;;;;;;13.70;6.90;;;;;;;;;;79046;1289;3011657;-66
2023/07/12 03:02:09;;;;;;;12.30;6.60;;;;;;;;;;80369;1290;3013610;-63
2023/07/12 03:04:36;;;;;;;14.80;7.20;;;;;;;;;;80269;1289;3013224;-64
2023/07/12 03:07:04;;;;;;;18.00;8.90;;;;;;;;;;79144;1289;3013004;-62
2023/07/12 03:09:30;;;;;;;20.60;9.00;;;;;;;;;;80307;1292;3019059;-63
2023/07/12 03:11:57;;;;;;;22.00;10.40;;;;;;;;;;80375;1289;3016230;-62
2023/07/12 03:14:25;;;;;;;23.80;11.30;;;;;;;;;;79050;1289;3013604;-62
2023/07/12 03:16:51;;;;;;;25.30;10.70;;;;;;;;;;80288;1289;3018644;-62
2023/07/12 03:19:18;;;;;;;27.20;11.40;;;;;;;;;;80293;1288;3011731;-63
2023/07/12 03:21:46;;;;;;;24.20;9.50;;;;;;;;;;79017;1289;3016745;-64
2023/07/12 03:24:12;;;;;;;17.80;9.90;;;;;;;;;;80297;1292;3018559;-64
2023/07/12 03:26:38;;;;;;;25.50;10.30;;;;;;;;;;80226;1290;3017413;-63
2023/07/12 03:29:06;;;;;;;24.80;10.60;;;;;;;;;;79268;1289;3013140;-64
2023/07/12 03:31:33;;;;;;;24.20;9.80;;;;;;;;;;80425;1289;3011777;-63
2023/07/12 03:34:00;;;;;;;27.20;10.80;;;;;;;;;;80403;1289;3017462;-63
2023/07/12 03:36:28;;;;;;;27.60;13.20;;;;;;;;;;79054;1290;3011803;-63
2023/07/12 03:38:55;;;;;;;20.60;9.10;;;;;;;;;;80404;1293;3019597;-63
2023/07/12 03:41:21;;;;;;;16.60;8.20;;;;;;;;;;80307;1295;3013544;-65
2023/07/12 03:43:49;;;;;;;11.90;5.90;;;;;;;;;;79059;1289;3020467;-63
2023/07/12 03:46:16;;;;;;;11.50;5.90;;;;;;;;;;80326;1289;3017067;-63
2023/07/12 03:48:43;;;;;;;11.50;6.30;;;;;;;;;;80287;1289;3019937;-65
2023/07/12 03:52:41;;;;;;;11.90;6.80;;;;;;;18.87;64.16;99136.14;79902;1300;3013508;-64
2023/07/12 03:55:08;;;;;;;16.30;6.80;;;;;;;18.64;65.21;99140.57;79222;1301;3014636;-64
2023/07/12 03:57:41;;;;;;;19.30;8.50;;;;;;;18.56;65.57;99136.38;78986;1301;3012451;-64
2023/07/12 04:00:10;;;;;;;21.00;7.90;;;;;;;18.35;66.08;99141.48;77976;1304;3052717;-63
2023/07/12 04:02:41;;;;;;;23.00;9.00;;;;;;;18.27;66.91;99145.07;79039;1303;3011966;-64
2023/07/12 04:05:09;;;;;;;25.10;11.70;;;;;;;18.22;66.78;99152.29;75925;1303;5833530;-63
2023/07/12 04:07:36;;;;;;;26.90;12.50;;;;;;;18.15;66.82;99145.52;79368;1298;3013324;-63
2023/07/12 04:10:03;;;;;;;27.40;12.30;;;;;;;18.16;67.23;99148.31;79352;1299;3011643;-63
2023/07/12 04:12:31;;;;;;;28.40;13.90;;;;;;;18.13;66.98;99157.39;78018;1300;3050325;-63
2023/07/12 04:14:58;;;;;;;29.70;13.20;;;;;;;18.01;67.50;99155.92;79309;1298;3012910;-64
2023/07/12 04:17:25;;;;;;;33.90;14.40;;;;;;;18.02;67.60;99155.16;79468;1296;3012739;-64
2023/07/12 04:19:53;;;;;;;32.90;14.80;;;;;;;17.98;67.09;99164.91;78154;1296;3029042;-64
2023/07/12 04:22:20;;;;;;;34.30;15.50;;;;;;;17.97;67.35;99159.67;79388;1298;3012832;-64
2023/07/12 04:24:51;;;;;;;37.60;16.00;;;;;;;17.92;67.98;99162.59;79434;1298;3012531;-64
2023/07/12 04:27:19;;;;;;;32.40;14.60;;;;;;;17.84;67.43;99167.09;78139;1300;3049101;-63
2023/07/12 04:29:47;;;;;;;30.40;13.00;;;;;;;17.82;67.66;99169.59;79203;1300;3011552;-65
2023/07/12 04:32:14;;;;;;;30.20;14.50;;;;;;;17.88;67.24;99173.09;79388;1300;3011792;-63
2023/07/12 04:34:41;;;;;;;36.20;16.10;;;;;;;17.81;67.77;99174.84;78203;1296;3050164;-62
2023/07/12 04:37:08;;;;;;;35.50;16.00;;;;;;;17.79;67.84;99176.23;79353;1298;3018682;-63
2023/07/12 04:39:35;;;;;;;33.10;16.00;;;;;;;17.87;68.29;99177.28;79279;1298;3011598;-64
2023/07/12 04:42:03;;;;;;;31.10;15.20;;;;;;;18.03;68.12;99181.23;78143;1300;3028126;-63
2023/07/12 04:44:30;;;;;;;22.40;9.90;;;;;;;18.15;67.67;99182.42;79196;1300;3013517;-63
2023/07/12 04:46:57;;;;;;;24.60;12.40;;;;;;;18.77;65.45;99181.27;79319;1297;3011507;-64
2023/07/12 04:49:24;;;;;;;22.10;13.70;;;;;;;19.37;63.24;99176.91;78007;1298;3050732;-64
2023/07/12 04:51:51;;;;;;;28.90;18.60;;;;;;;19.56;62.45;99175.95;79253;1297;3020537;-64
2023/07/12 04:54:17;;;;;;;34.00;18.40;;;;;;;19.54;61.75;99178.44;79291;1300;3013046;-62
2023/07/12 04:56:45;;;;;;;25.50;15.60;;;;;;;19.52;61.89;99183.45;78442;1294;3028436;-64
2023/07/12 04:59:12;;;;;;;23.40;11.80;;;;;;;19.42;61.88;99184.72;79687;1293;3018576;-65
2023/07/12 05:01:38;;;;;;;20.40;8.00;;;;;;;19.41;61.97;99192.15;79843;1294;3013363;-64
2023/07/12 05:04:06;;;;;;;13.50;5.60;;;;;;;19.22;61.91;99194.49;78509;1294;3028776;-67
2023/07/12 05:06:34;;;;;;;7.30;4.90;;;;;;;19.09;61.60;99203.23;80000;1291;3012759;-64
2023/07/12 05:09:01;;;;;;;9.40;4.40;;;;;;;18.97;62.12;99203.29;79859;1290;3013852;-63
2023/07/12 05:11:29;;;;;;;8.90;5.00;;;;;;;18.96;62.58;99204.13;78641;1293;3049564;-66
2023/07/12 05:13:56;;;;;;;9.80;5.10;;;;;;;18.87;63.38;99202.12;79866;1292;3019120;-64
2023/07/12 05:16:22;;;;;;;9.50;4.50;;;;;;;18.89;63.95;99201.79;79747;1290;3011525;-65
2023/07/12 05:18:50;;;;;;;8.40;4.10;;;;;;;18.92;63.64;99207.53;78672;1293;3027139;-63
2023/07/12 05:21:17;;;;;;;8.20;3.70;;;;;;;18.88;62.84;99207.44;79806;1291;3013096;-64
2023/07/12 05:23:43;;;;;;;10.70;4.10;;;;;;;18.88;62.74;99206.91;79869;1291;3015429;-65
2023/07/12 05:26:11;;;;;;;6.80;3.60;;;;;;;18.86;62.49;99205.30;78494;1293;3025742;-64
2023/07/12 05:28:38;;;;;;;6.20;3.60;;;;;;;18.80;62.32;99206.73;79855;1294;3013459;-65
2023/07/12 05:31:09;;;;;;;6.80;3.60;;;;;;;18.89;62.47;99207.96;79908;1291;3011870;-63
2023/07/12 05:33:41;;;;;;;5.40;3.20;;;;;;;18.93;61.70;99209.20;78640;1294;3051211;-64
2023/07/12 05:36:07;;;;;;;6.60;3.00;;;;;;;18.86;61.27;99207.44;79810;1291;3013263;-66
2023/07/12 05:38:36;;;;;;;9.00;3.30;;;;;;;18.92;61.07;99208.27;78365;1291;3026191;-65
2023/07/12 05:41:03;;;;;;;8.20;2.60;;;;;;;18.94;60.58;99210.73;79775;1291;3020412;-63
2023/07/12 05:43:35;;;;;;;5.10;2.80;;;;;;;19.09;60.70;99208.56;79422;1294;3011653;-65
2023/07/12 05:46:03;;;;;;;5.70;2.70;;;;;;;19.22;59.78;99208.64;79787;1290;3013179;-66
2023/07/12 05:48:29;;;;;;;8.50;2.70;;;;;;;19.41;59.21;99209.70;79842;1291;3011897;-64
2023/07/12 05:50:58;;;;;;;4.70;2.10;;;;;;;19.53;58.36;99215.42;78487;1297;3050797;-64
2023/07/12 05:53:25;;;;;;;4.60;2.10;;;;;;;19.56;58.12;99216.76;80000;1290;3012958;-64
2023/07/12 05:55:56;;;;;;;5.10;2.10;;;;;;;19.65;57.59;99216.45;79773;1291;3011727;-65
2023/07/12 05:58:24;;;;;;;4.00;2.30;;;;;;;19.69;56.53;99220.19;78566;1291;3051388;-66
2023/07/12 06:00:58;;;;;;;3.00;1.70;;;;;;;19.75;56.74;99222.48;79824;1294;3014087;-66
2023/07/12 06:03:31;;;;;;;5.90;2.40;;;;;;;19.84;56.92;99226.34;78369;1294;3069207;-65
2023/07/12 06:05:58;;;;;;;6.20;2.30;;;;;;;19.89;56.84;99230.79;79863;1293;3012785;-64
2023/07/12 06:08:26;;;;;;;5.30;2.30;;;;;;;19.92;56.34;99232.67;78529;1291;3056762;-65
2023/07/12 06:10:52;;;;;;;5.40;2.30;;;;;;;20.01;55.93;99233.11;79825;1291;3013238;-65
2023/07/12 06:13:19;;;;;;;9.80;4.00;;;;;;;19.99;56.03;99236.58;79768;1291;3011816;-66
2023/07/12 06:15:47;;;;;;;9.70;3.60;;;;;;;20.08;55.92;99235.61;78786;1294;3025882;-66
2023/07/12 06:18:15;;;;;;;10.90;4.20;;;;;;;20.16;55.82;99229.64;79996;1291;3013574;-67
2023/07/12 06:20:41;;;;;;;8.20;2.60;;;;;;;20.29;55.74;99227.19;79862;1294;3011442;-67
2023/07/12 06:23:09;;;;;;;5.30;2.30;;;;;;;20.26;54.83;99227.35;78811;1292;3056096;-66
2023/07/12 06:25:35;;;;;;;5.70;2.90;;;;;;;20.31;54.36;99227.89;79896;1294;3013432;-65
2023/07/12 06:28:03;;;;;;;4.50;2.20;;;;;;;20.25;54.83;99236.70;79687;1291;3011939;-66
2023/07/12 06:30:31;;;;;;;2.50;1.90;;;;;;;20.24;54.54;99238.70;78568;1294;3051774;-66
2023/07/12 06:32:58;;;;;;;5.70;1.80;;;;;;;20.19;55.11;99232.13;79849;1289;3012966;-67
2023/07/12 06:35:25;;;;;;;4.60;2.00;;;;;;;20.21;55.44;99232.35;79795;1294;3011778;-64
2023/07/12 06:37:54;;;;;;;2.70;1.70;;;;;;;20.18;55.62;99230.17;78838;1291;3026539;-65
2023/07/12 06:40:20;;;;;;;4.90;2.30;;;;;;;20.09;56.70;99225.23;79823;1291;3013953;-62
2023/07/12 06:42:47;;;;;;;5.00;2.10;;;;;;;20.19;57.07;99218.16;79754;1291;3011536;-65
2023/07/12 06:45:16;;;;;;;2.30;1.80;;;;;;;20.27;56.76;99214.75;78503;1294;3052051;-64
2023/07/12 06:47:44;;;;;;;2.30;1.90;;;;;;;20.28;56.50;99210.57;79834;1290;3012995;-64
2023/07/12 06:50:10;;;;;;;3.30;2.30;;;;;;;20.30;56.69;99211.15;79772;1291;3011596;-68
2023/07/12 06:52:38;;;;;;;6.50;3.10;;;;;;;20.36;56.72;99219.02;78574;1294;3055859;-65
2023/07/12 06:55:05;;;;;;;5.00;2.80;;;;;;;20.37;56.97;99218.52;79973;1291;3013574;-63
2023/07/12 06:57:34;;;;;;;4.10;2.50;;;;;;;20.49;57.49;99222.79;79715;1294;3011713;-64
2023/07/12 07:00:04;;;;;;;6.00;2.60;;;;;;;20.55;56.89;99228.80;78481;1295;3053407;-66
2023/07/12 07:02:33;;;;;;;4.60;2.80;;;;;;;20.43;56.34;99236.38;80002;1290;3011939;-66
2023/07/12 07:05:01;;;;;;;4.30;2.60;;;;;;;20.48;56.47;99236.98;78480;1294;3026465;-70
2023/07/12 07:07:28;;;;;;;3.50;2.20;;;;;;;20.58;56.40;99241.02;79824;1291;3013532;-68
2023/07/12 07:09:54;;;;;;;5.90;2.30;;;;;;;20.56;55.72;99252.85;79841;1291;3012976;-68
2023/07/12 07:12:23;;;;;;;7.60;2.40;;;;;;;20.56;55.98;99244.08;78493;1291;3026961;-71
2023/07/12 07:14:49;;;;;;;5.50;2.90;;;;;;;20.70;56.36;99238.75;79825;1293;3012669;-69
2023/07/12 07:17:16;;;;;;;3.20;1.70;;;;;;;20.73;54.18;99245.14;79717;1291;3013358;-66
2023/07/12 07:19:44;;;;;;;3.10;2.40;;;;;;;20.64;53.28;99238.09;78572;1291;3025108;-70
2023/07/12 07:22:10;;;;;;;4.60;2.20;;;;;;;20.68;53.30;99234.48;79916;1291;3013336;-66
2023/07/12 07:24:37;;;;;;;4.70;1.80;;;;;;;20.93;53.01;99228.19;79761;1294;3013354;-69
2023/07/12 07:27:05;;;;;;;4.70;2.30;;;;;;;21.04;52.62;99223.69;78615;1294;3029063;-73
2023/07/12 07:29:32;;;;;;;3.40;1.80;;;;;;;21.06;52.35;99224.02;79915;1294;3013349;-69
2023/07/12 07:31:58;;;;;;;3.50;2.00;;;;;;;21.13;51.50;99221.64;79851;1290;3013045;-68
2023/07/12 07:34:26;;;;;;;3.10;1.80;;;;;;;21.27;51.38;99220.46;78530;1294;3025733;-69
2023/07/12 07:36:53;;;;;;;6.60;2.80;;;;;;;21.32;50.58;99210.91;79804;1292;3012943;-65
2023/07/12 07:39:19;;;;;;;4.10;2.30;;;;;;;21.42;50.33;99223.13;79750;1294;3013243;-67
2023/07/12 07:41:47;;;;;;;4.30;2.10;;;;;;;21.52;50.12;99223.13;78566;1294;3026061;-67
2023/07/12 07:44:16;;;;;;;3.20;1.90;;;;;;;21.56;48.27;99225.20;79887;1294;3013802;-67
2023/07/12 07:46:45;;;;;;;4.60;1.80;;;;;;;21.65;48.42;99221.08;79359;1294;3011558;-67
2023/07/12 07:49:12;;;;;;;4.60;1.30;;;;;;;21.71;47.83;99219.15;79854;1294;3013202;-64
2023/07/12 07:51:39;;;;;;;7.00;1.70;;;;;;;21.75;47.57;99223.09;79851;1294;3011863;-67
2023/07/12 07:54:07;;;;;;;4.10;1.50;;;;;;;21.70;45.51;99224.06;78642;1290;3028394;-68
2023/07/12 07:56:35;;;;;;;3.50;2.20;;;;;;;21.48;44.57;99219.33;80042;1294;3013894;-70
2023/07/12 07:59:01;;;;;;;3.00;1.30;;;;;;;21.56;44.51;99213.64;79927;1294;3013201;-69
2023/07/12 08:01:29;;;;;;;6.70;1.60;;;;;;;21.68;43.89;99206.02;78653;1294;3052943;-69
2023/07/12 08:03:56;;;;;;;2.30;1.40;;;;;;;21.78;43.48;99206.70;79835;1291;3013159;-68
2023/07/12 08:06:23;;;;;;;1.70;1.40;;;;;;;21.93;43.59;99205.27;79782;1292;3013076;-66
2023/07/12 08:08:54;;;;;;;1.80;1.30;;;;;;;22.00;43.19;99209.47;78625;1292;3056338;-69
2023/07/12 08:11:21;;;;;;;2.90;1.40;;;;;;;21.92;41.93;99209.77;79842;1291;3012968;-74
2023/07/12 08:13:47;;;;;;;4.80;1.70;;;;;;;22.05;41.39;99211.59;79802;1292;3011702;-69
2023/07/12 08:16:15;;;;;;;5.10;1.50;;;;;;;22.21;41.94;99212.91;78689;1294;3026567;-71
2023/07/12 08:18:42;;;;;;;3.20;1.30;;;;;;;22.31;41.80;99219.70;80000;1291;3013565;-70
2023/07/12 08:21:09;;;;;;;3.10;1.60;;;;;;;22.28;41.59;99227.23;79801;1290;3012910;-70
2023/07/12 08:23:36;;;;;;;3.10;1.50;;;;;;;22.43;41.99;99226.24;78701;1293;3028863;-68
2023/07/12 08:26:03;;;;;;;4.30;1.70;;;;;;;22.63;41.44;99217.48;79796;1290;3013249;-69
2023/07/12 08:28:31;;;;;;;3.40;1.90;;;;;;;22.64;41.28;99218.41;79824;1291;3011365;-65
2023/07/12 08:30:58;;;;;;;3.80;1.60;;;;;;;22.75;41.63;99213.26;78673;1291;3053456;-65
2023/07/12 08:33:25;;;;;;;2.40;1.60;;;;;;;22.90;41.16;99214.80;79698;1291;3012922;-65
2023/07/12 08:35:51;;;;;;;5.20;1.60;;;;;;;22.78;41.13;99224.18;79871;1290;3012790;-68
2023/07/12 08:38:19;;;;;;;2.20;1.30;;;;;;;22.32;41.85;99227.29;78528;1294;3026074;-66
2023/07/12 08:40:48;;;;;;;2.60;1.60;;;;;;;22.30;42.56;99214.95;79923;1291;3012962;-67
2023/07/12 08:43:20;;;;;;;2.30;1.70;;;;;;;22.26;43.04;99218.31;79951;1293;3011799;-68
2023/07/12 08:45:50;;;;;;;3.60;1.60;;;;;;;22.34;43.50;99217.05;78647;1294;3053885;-65
2023/07/12 08:48:20;;;;;;;3.20;2.60;;;;;;;22.24;43.49;99213.88;79859;1293;3012826;-69
2023/07/12 08:50:48;;;;;;;3.80;1.80;;;;;;;22.22;44.02;99210.17;78727;1294;3067930;-68
2023/07/12 08:53:20;;;;;;;5.70;1.80;;;;;;;22.20;43.73;99203.46;79775;1291;3013914;-68
2023/07/12 08:55:49;;;;;;;1.60;1.50;;;;;;;22.35;43.95;99201.95;78498;1296;3049477;-66
2023/07/12 08:58:21;;;;;;;4.10;1.50;;;;;;;22.68;43.91;99196.25;79825;1291;3011477;-71
2023/07/12 09:01:00;;;;;;;3.40;1.90;;;;;;;22.90;42.72;99196.35;78518;1296;3048492;-66
2023/07/12 09:03:28;;;;;;;7.20;1.60;;;;;;;22.76;41.82;99197.83;78330;1297;3052649;-66
2023/07/12 09:05:55;;;;;;;1.80;1.50;;;;;;;22.70;41.44;99207.61;79487;1295;3012969;-68
2023/07/12 09:08:35;;;;;;;5.10;1.60;;;;;;;22.73;41.21;99200.70;79612;1291;3013432;-68
2023/07/12 09:11:03;;;;;;;5.20;1.70;;;;;;;22.73;41.10;99205.67;78098;1293;3057337;-66
2023/07/12 09:13:37;;;;;;;2.20;1.20;;;;;;;22.57;40.75;99208.37;79620;1291;3013111;-66
2023/07/12 09:16:20;;;;;;;1.90;1.50;;;;;;;22.52;41.23;99204.98;78393;1297;3052138;-67
2023/07/12 09:18:51;;;;;;;3.10;1.80;;;;;;;22.71;40.50;99206.76;78522;1292;3052547;-67
2023/07/12 09:21:22;;;;;;;1.80;1.30;;;;;;;22.82;40.24;99202.33;79833;1291;3011774;-65
2023/07/12 09:23:51;;;;;;;2.80;2.10;;;;;;;22.90;40.60;99193.47;78440;1294;3068718;-67
2023/07/12 09:26:29;;;;;;;3.30;2.30;;;;;;;22.89;40.49;99192.17;79816;1291;3013927;-67
2023/07/12 09:28:58;;;;;;;2.90;1.40;;;;;;;22.90;40.79;99194.16;78652;1290;3057863;-66
2023/07/12 09:31:28;;;;;;;4.40;1.60;;;;;;;23.15;40.26;99187.22;79674;1291;3014924;-64
2023/07/12 09:33:58;;;;;;;4.00;2.20;;;;;;;23.16;40.94;99189.22;78501;1294;3049854;-64
2023/07/12 09:36:24;;;;;;;3.90;2.10;;;;;;;23.04;41.65;99196.34;79869;1291;3011943;-66
2023/07/12 09:38:51;;;;;;;5.20;2.90;;;;;;;22.72;41.75;99204.17;79781;1292;3011633;-67
2023/07/12 09:41:23;;;;;;;4.20;1.80;;;;;;;22.68;41.93;99205.55;78591;1293;3051603;-62
2023/07/12 09:43:54;;;;;;;4.80;2.10;;;;;;;22.76;42.44;99208.88;79789;1290;3011601;-65
2023/07/12 09:46:38;;;;;;;4.20;2.30;;;;;;;23.09;42.11;99199.36;78482;1294;3049044;-69
2023/07/12 09:49:15;;;;;;;6.50;2.10;;;;;;;23.28;40.52;99191.97;78576;1291;3054647;-67
2023/07/12 09:51:53;;;;;;;2.10;1.40;;;;;;;23.25;39.62;99203.95;78518;1311;3050381;-63
2023/07/12 09:54:28;;;;;;;1.70;1.20;;;;;;;23.33;39.56;99200.00;78680;1294;3052643;-65
2023/07/12 09:57:23;;;;;;;1.70;1.40;;;;;;;23.46;39.04;99200.83;78498;1294;3053049;-66
2023/07/12 10:00:14;;;;;;;;;;;;;;;23.57;39.18;99206.00;78381;1294;3069117;-67
2023/07/12 10:03:01;;;;;;;3.90;1.20;;;;;;;23.42;38.44;99199.23;78546;1294;3050129;-64
2023/07/12 10:05:28;;;;;;;1.80;1.10;;;;;;;23.36;38.51;99199.42;78412;1293;3056143;-66
2023/07/12 10:08:22;;;;;;;2.00;1.40;;;;;;;23.47;38.64;99187.02;79749;1291;3012941;-67
2023/07/12 10:10:53;;;;;;;2.70;1.40;;;;;;;23.65;37.34;99192.79;78438;1291;3050211;-66
2023/07/12 10:13:34;;;;;;;4.40;0.90;;;;;;;23.39;37.03;99195.07;79839;1293;3013009;-69
2023/07/12 10:16:03;;;;;;;1.80;1.20;;;;;;;23.24;37.48;99189.35;78503;1294;3052976;-70
2023/07/12 10:18:33;;;;;;;2.20;1.30;;;;;;;23.41;37.29;99174.55;79986;1293;3011419;-67
2023/07/12 10:21:01;;;;;;;2.20;1.40;;;;;;;23.78;37.66;99163.31;78633;1294;3026102;-67
2023/07/12 10:23:29;;;;;;;3.60;1.30;;;;;;;23.72;38.13;99174.66;79926;1291;3013640;-68
2023/07/12 10:25:57;;;;;;;2.80;1.70;;;;;;;23.21;38.27;99184.52;79801;1291;3011587;-68
2023/07/12 10:28:40;;;;;;;5.40;2.30;;;;;;;23.11;38.86;99187.31;78609;1294;3049193;-68
2023/07/12 10:31:23;;;;;;;4.40;1.80;;;;;;;23.16;38.81;99194.08;78610;1294;3052024;-69
2023/07/12 10:33:52;;;;;;;;;;;;;;;23.20;38.88;99189.70;78695;1295;3052451;-64
2023/07/12 10:36:22;;;;;;;4.40;1.80;;;;;;;23.08;39.27;99191.83;79894;1291;3013300;-66
2023/07/12 10:38:50;;;;;;;2.70;1.60;;;;;;;23.31;39.51;99180.91;78635;1290;3055255;-63
2023/07/12 10:41:24;;;;;;;2.50;1.70;;;;;;;23.48;38.52;99183.52;79637;1293;3013552;-69
2023/07/12 10:44:13;;;;;;;3.80;1.60;;;;;;;23.61;38.38;99184.08;78529;1295;3049601;-66
2023/07/12 10:46:45;;;;;;;4.00;1.50;;;;;;;23.87;37.65;99184.45;78727;1291;3053062;-68
2023/07/12 10:49:16;;;;;;;3.10;1.40;;;;;;;24.08;37.47;99180.09;79861;1294;3011458;-64
2023/07/12 10:51:45;;;;;;;2.80;1.30;;;;;;;23.98;36.38;99197.96;78768;1290;3069445;-65
2023/07/12 10:54:30;;;;;;;3.40;1.50;;;;;;;23.82;36.30;99194.61;80337;1290;3011965;-63
2023/07/12 10:57:05;;;;;;;4.70;1.40;;;;;;;23.69;36.05;99196.33;80910;1290;3057342;-65
2023/07/12 10:59:42;;;;;;;2.80;1.50;;;;;;;23.54;36.39;99179.47;80894;1291;3048601;-66
2023/07/12 11:02:29;;;;;;;1.90;1.20;;;;;;;23.63;36.68;99178.38;80211;1291;3052899;-65
2023/07/12 11:04:57;;;;;;;7.10;1.40;;;;;;;24.04;36.59;99188.44;80909;1291;3048556;-65
2023/07/12 11:07:28;;;;;;;2.10;1.30;;;;;;;24.33;36.28;99189.53;80317;1293;3011601;-64
2023/07/12 11:09:56;;;;;;;5.50;1.80;;;;;;;24.55;36.23;99183.08;78438;1295;3026193;-65
2023/07/12 11:12:31;;;;;;;8.10;1.40;;;;;;;24.40;35.67;99194.64;79775;1291;3018484;-66
2023/07/12 11:15:13;;;;;;;3.10;1.60;;;;;;;24.22;35.85;99185.01;78598;1291;3055427;-66
2023/07/12 11:17:59;;;;;;;5.10;1.30;;;;;;;24.43;35.84;99177.77;78536;1291;3050602;-63
2023/07/12 11:20:30;;;;;;;2.00;1.20;;;;;;;24.54;35.57;99172.08;78567;1294;3054026;-66
2023/07/12 11:23:07;;;;;;;2.30;1.40;;;;;;;24.80;35.59;99169.86;79921;1290;3013814;-65
2023/07/12 11:25:48;;;;;;;1.60;1.10;;;;;;;24.62;35.61;99178.64;78614;1291;3052879;-63
2023/07/12 11:28:22;;;;;;;1.90;1.20;;;;;;;24.23;35.61;99177.73;78577;1294;3053827;-64
2023/07/12 11:31:23;;;;;;;3.80;1.50;;;;;;;24.26;35.37;99174.13;79750;1291;3011963;-64
2023/07/12 11:34:24;;;;;;;2.00;1.30;;;;;;;24.52;34.74;99182.92;78481;1294;3052928;-64
2023/07/12 11:36:54;;;;;;;2.70;1.10;;;;;;;24.68;34.18;99174.03;78346;1291;3056253;-63
2023/07/12 11:39:22;;;;;;;3.60;1.20;;;;;;;24.40;34.64;99180.26;79767;1290;3012861;-67
2023/07/12 11:42:04;;;;;;;1.40;1.20;;;;;;;24.39;34.45;99166.63;79300;1294;3012375;-65
2023/07/12 11:44:32;;;;;;;2.40;1.30;;;;;;;24.69;34.68;99170.80;78420;1290;3050585;-65
2023/07/12 11:46:58;;;;;;;3.40;1.10;;;;;;;24.75;34.25;99173.87;79785;1297;3012811;-63
2023/07/12 11:49:28;;;;;;;3.90;1.20;;;;;;;25.05;34.11;99168.70;79761;1297;3011665;-64
2023/07/12 11:51:57;;;;;;;3.60;1.40;;;;;;;25.18;33.21;99164.19;78615;1294;3051633;-65
2023/07/12 11:54:26;;;;;;;5.30;1.60;;;;;;;25.16;33.23;99164.58;79833;1291;3014358;-64
2023/07/12 11:56:58;;;;;;;4.10;1.60;;;;;;;25.21;32.96;99166.69;78599;1291;3053459;-64
2023/07/12 11:59:26;;;;;;;2.30;1.70;;;;;;;25.08;33.32;99166.09;79849;1291;3011321;-65
2023/07/12 12:01:53;;;;;;;3.90;2.30;;;;;;;25.28;33.52;99159.00;78538;1294;3053548;-64
2023/07/12 12:04:26;;;;;;;4.50;2.50;;;;;;;25.57;33.72;99162.31;79818;1293;3018434;-64
2023/07/12 12:06:56;;;;;;;3.30;1.60;;;;;;;25.88;33.41;99161.36;78487;1294;3051808;-63
2023/07/12 12:09:29;;;;;;;8.00;1.70;;;;;;;25.49;33.24;99171.02;79765;1290;3012007;-63
2023/07/12 12:11:57;;;;;;;4.40;1.40;;;;;;;24.99;34.36;99167.80;78353;1294;3049714;-65
2023/07/12 12:14:27;;;;;;;1.50;1.30;;;;;;;24.67;34.94;99170.02;79819;1294;3013049;-64
2023/07/12 12:16:56;;;;;;;4.90;1.80;;;;;;;24.69;35.15;99171.72;78555;1294;3053799;-65
2023/07/12 12:19:27;;;;;;;3.40;1.50;;;;;;;24.61;35.52;99167.73;79761;1294;3013103;-65
2023/07/12 12:22:13;;;;;;;4.70;1.20;;;;;;;24.51;35.44;99167.08;78438;1290;3050744;-65
2023/07/12 12:24:53;;;;;;;2.10;1.20;;;;;;;24.16;35.45;99174.42;78520;1295;3058835;-63
2023/07/12 12:27:26;;;;;;;5.00;2.10;;;;;;;24.04;35.79;99179.34;78469;1291;3048946;-64
2023/07/12 12:29:52;;;;;;;7.60;1.70;;;;;;;24.06;36.21;99174.83;79781;1294;3012185;-64
2023/07/12 12:32:21;;;;;;;3.00;1.80;;;;;;;24.09;35.85;99172.60;78287;1295;3050508;-67
2023/07/12 12:34:51;;;;;;;3.70;2.10;;;;;;;23.86;36.13;99173.26;79875;1294;3015590;-66
2023/07/12 12:37:21;;;;;;;2.90;1.70;;;;;;;23.85;35.68;99178.55;78468;1291;3069582;-64
2023/07/12 12:40:04;;;;;;;3.50;2.10;;;;;;;24.02;35.61;99174.34;79795;1290;3011421;-64
2023/07/12 12:42:32;;;;;;;4.60;2.50;;;;;;;24.05;35.53;99174.67;78607;1292;3057944;-66
2023/07/12 12:44:59;;;;;;;4.30;2.50;;;;;;;24.20;35.44;99179.27;79773;1291;3018715;-65
2023/07/12 12:47:28;;;;;;;5.10;2.40;;;;;;;24.32;35.50;99185.05;79682;1290;3013202;-65
2023/07/12 12:49:57;;;;;;;5.40;1.90;;;;;;;24.70;35.37;99189.89;78570;1294;3052615;-64
2023/07/12 12:52:29;;;;;;;2.10;1.50;;;;;;;24.85;34.69;99190.33;79872;1291;3013602;-65
2023/07/12 12:54:59;;;;;;;1.90;1.40;;;;;;;25.06;34.37;99185.80;78503;1291;3050948;-66
2023/07/12 12:57:29;;;;;;;1.90;1.30;;;;;;;25.34;33.78;99181.35;79905;1290;3011721;-65
2023/07/12 12:59:57;;;;;;;4.70;1.70;;;;;;;25.69;33.64;99185.30;78493;1297;3049988;-64
2023/07/12 13:02:24;;;;;;;2.40;1.70;;;;;;;25.89;33.42;99183.34;79836;1291;3013275;-65
2023/07/12 13:04:52;;;;;;;1.80;1.50;;;;;;;26.29;32.95;99178.84;79704;1294;3011864;-63
2023/07/12 13:07:21;;;;;;;2.40;1.30;;;;;;;26.29;31.05;99189.16;78575;1294;3052085;-65
2023/07/12 13:09:49;;;;;;;4.10;1.50;;;;;;;26.05;31.60;99191.79;79831;1293;3013524;-63
2023/07/12 13:12:20;;;;;;;4.70;1.70;;;;;;;26.13;31.53;99186.66;79303;1290;3013507;-65
2023/07/12 13:14:49;;;;;;;4.90;2.40;;;;;;;26.36;31.43;99189.92;79741;1294;3011763;-64
2023/07/12 13:17:23;;;;;;;5.60;3.60;;;;;;;26.51;31.85;99194.45;78618;1294;3029596;-64
2023/07/12 13:19:52;;;;;;;4.20;1.90;;;;;;;26.63;32.19;99192.80;79250;1291;3013707;-66
2023/07/12 13:22:20;;;;;;;3.50;1.40;;;;;;;26.62;32.28;99196.80;79772;1292;3013488;-65
2023/07/12 13:24:47;;;;;;;3.60;1.40;;;;;;;26.50;32.77;99199.57;79780;1293;3012972;-64
2023/07/12 13:27:21;;;;;;;2.90;1.10;;;;;;;26.45;32.45;99199.48;78578;1294;3052670;-65
2023/07/12 13:29:51;;;;;;;2.90;1.50;;;;;;;26.36;32.76;99198.75;78460;1294;3069681;-63
2023/07/12 13:32:19;;;;;;;2.80;1.40;;;;;;;26.34;32.74;99194.89;79826;1294;3013536;-66
2023/07/12 13:34:46;;;;;;;3.40;1.40;;;;;;;26.37;32.44;99193.58;79585;1294;3011928;-63
2023/07/12 13:37:19;;;;;;;2.90;1.60;;;;;;;26.38;32.71;99193.23;78588;1294;3053461;-65
2023/07/12 13:39:46;;;;;;;2.30;1.60;;;;;;;26.16;32.58;99187.71;79772;1292;3011872;-66
2023/07/12 13:42:14;;;;;;;2.10;1.70;;;;;;;26.35;32.46;99193.89;78470;1294;3051898;-66
2023/07/12 13:44:41;;;;;;;3.00;1.80;;;;;;;26.45;32.48;99190.28;79847;1290;3018657;-65
2023/07/12 13:47:23;;;;;;;2.80;1.90;;;;;;;26.11;32.40;99196.69;79770;1294;3012955;-63
2023/07/12 13:49:51;;;;;;;5.30;2.20;;;;;;;25.88;32.99;99194.84;78496;1294;3057771;-64
2023/07/12 13:52:20;;;;;;;1.80;1.40;;;;;;;26.08;32.76;99199.84;79948;1290;3013383;-64
2023/07/12 13:54:50;;;;;;;2.30;1.60;;;;;;;26.44;32.40;99193.96;79237;1294;3011645;-64
2023/07/12 13:57:19;;;;;;;2.40;1.20;;;;;;;26.85;31.51;99193.19;79801;1294;3013054;-62
2023/07/12 13:59:48;;;;;;;2.60;1.10;;;;;;;26.46;30.95;99205.73;79295;1294;3012211;-66